Time;durP1;ratioP1;P1;durP2;ratioP2;P2;SDS_P1;SDS_P2;PMS_P1;PMS_P2;Temp;Humidity;BMP_temperature;BMP_pressure;BME280_temperature;BME280_humidity;BME280_pressure;Samples;Min_cycle;Max_cycle;Signal;HPM_P1;HPM_P2
2022/08/04 00:00:39;;;;;;;4.10;2.97;;;;;;;20.70;63.53;98081.44;4970999;28;20374;-70
2022/08/04 00:03:26;;;;;;;3.78;2.45;;;;;;;20.60;63.81;98082.78;5021220;28;20597;-71
2022/08/04 00:06:04;;;;;;;2.90;2.25;;;;;;;20.53;62.61;98078.50;5021385;28;20072;-70
2022/08/04 00:08:41;;;;;;;2.65;2.08;;;;;;;20.48;63.50;98079.19;5008547;28;20400;-70
2022/08/04 00:11:09;;;;;;;2.47;2.28;;;;;;;20.42;63.23;98077.41;5005042;28;20054;-69
2022/08/04 00:13:42;;;;;;;5.93;2.63;;;;;;;20.35;63.61;98079.34;5015081;28;20038;-70
2022/08/04 00:16:31;;;;;;;2.45;2.22;;;;;;;20.33;62.90;98076.09;5003591;28;20097;-70
2022/08/04 00:19:29;;;;;;;5.20;2.70;;;;;;;20.33;63.64;98081.47;5025465;28;20436;-70
2022/08/04 00:21:59;;;;;;;2.70;2.05;;;;;;;20.29;62.68;98080.28;5004686;28;20049;-70
2022/08/04 00:24:29;;;;;;;4.75;2.60;;;;;;;20.32;63.42;98079.81;5024497;28;20081;-70
2022/08/04 00:26:55;;;;;;;3.28;2.47;;;;;;;20.34;62.80;98085.78;5021199;28;20030;-70
2022/08/04 00:29:23;;;;;;;2.60;2.40;;;;;;;20.26;63.33;98080.72;5010580;28;20045;-70
2022/08/04 00:31:50;;;;;;;2.88;2.50;;;;;;;20.21;64.02;98078.69;5032588;28;20037;-70
2022/08/04 00:34:27;;;;;;;2.35;2.15;;;;;;;20.20;64.90;98076.25;5024527;28;20388;-71
2022/08/04 00:36:54;;;;;;;3.23;2.27;;;;;;;20.21;65.15;98077.88;5022514;28;20049;-70
2022/08/04 00:39:21;;;;;;;3.33;2.42;;;;;;;20.18;65.32;98074.59;5020046;28;20050;-70
2022/08/04 00:42:17;;;;;;;2.58;2.30;;;;;;;20.20;64.68;98082.44;5014480;28;20045;-70
2022/08/04 00:45:16;;;;;;;3.55;2.33;;;;;;;20.09;64.24;98067.06;5013267;28;20057;-70
2022/08/04 00:48:09;;;;;;;3.65;2.45;;;;;;;20.10;65.22;98072.22;5017807;28;20058;-71
2022/08/04 00:50:41;;;;;;;2.50;2.30;;;;;;;20.12;64.41;98075.50;4999536;28;20034;-70
2022/08/04 00:53:26;;;;;;;5.18;2.05;;;;;;;20.27;63.77;98076.97;5022830;28;20038;-70
2022/08/04 00:56:07;;;;;;;3.72;2.50;;;;;;;20.12;63.92;98075.50;5009344;28;20045;-70
2022/08/04 00:59:08;;;;;;;4.80;2.42;;;;;;;20.13;64.84;98085.19;5021746;28;20042;-70
2022/08/04 01:01:51;;;;;;;3.05;2.05;;;;;;;20.14;64.83;98089.53;5020409;28;20042;-70
2022/08/04 01:04:41;;;;;;;3.28;2.10;;;;;;;20.22;63.73;98079.53;5021124;28;20096;-71
2022/08/04 01:07:45;;;;;;;7.63;2.20;;;;;;;20.11;64.66;98084.59;5014749;28;20064;-70
2022/08/04 01:10:41;;;;;;;1.98;1.88;;;;;;;20.10;63.96;98080.28;5017832;28;20052;-70
2022/08/04 01:13:24;;;;;;;2.72;2.53;;;;;;;20.11;62.93;98073.03;4994980;28;20044;-70
2022/08/04 01:15:50;;;;;;;2.70;1.95;;;;;;;20.12;64.08;98080.88;5025743;28;20380;-70
2022/08/04 01:18:32;;;;;;;2.53;2.20;;;;;;;20.06;64.09;98080.94;5024717;28;20060;-70
2022/08/04 01:21:10;;;;;;;3.42;2.00;;;;;;;20.02;64.92;98080.56;5018637;28;20045;-70
2022/08/04 01:24:06;;;;;;;3.15;2.45;;;;;;;19.91;65.25;98074.09;5021210;28;20389;-69
2022/08/04 01:26:53;;;;;;;4.65;2.10;;;;;;;19.89;64.34;98069.97;5018610;28;20048;-70
2022/08/04 01:29:26;;;;;;;3.22;2.13;;;;;;;19.97;64.49;98077.75;5024689;28;20041;-71
2022/08/04 01:32:19;;;;;;;3.15;2.17;;;;;;;20.03;64.62;98066.09;5020605;28;20739;-70
2022/08/04 01:34:55;;;;;;;2.40;2.08;;;;;;;19.95;65.01;98069.91;5016131;28;20041;-70
2022/08/04 01:37:40;;;;;;;2.92;2.45;;;;;;;19.86;64.29;98065.06;5019294;28;20516;-70
2022/08/04 01:40:07;;;;;;;3.20;2.22;;;;;;;19.78;64.07;98073.41;5011082;28;20046;-70
2022/08/04 01:42:35;;;;;;;2.28;2.03;;;;;;;19.58;64.51;98068.19;5035072;28;20121;-69
2022/08/04 01:45:07;;;;;;;2.25;2.05;;;;;;;19.44;64.06;98067.50;5011712;28;20056;-71
2022/08/04 01:47:36;;;;;;;2.45;2.22;;;;;;;19.45;64.80;98069.13;5015363;28;20048;-72
2022/08/04 01:50:11;;;;;;;2.35;1.80;;;;;;;19.42;65.12;98066.91;5023304;28;20500;-72
2022/08/04 01:52:39;;;;;;;5.05;2.20;;;;;;;19.41;64.08;98070.63;5014969;28;20408;-71
2022/08/04 01:55:09;;;;;;;4.18;2.30;;;;;;;19.51;64.19;98076.31;5018708;28;20053;-71
2022/08/04 01:57:44;;;;;;;6.03;2.47;;;;;;;19.44;64.21;98073.69;5035974;28;20042;-72
2022/08/04 02:00:16;;;;;;;2.75;2.17;;;;;;;19.39;63.97;98067.34;5019614;28;20398;-72
2022/08/04 02:02:44;;;;;;;4.90;2.20;;;;;;;19.40;65.85;98069.78;5020856;28;20060;-71
2022/08/04 02:05:14;;;;;;;2.20;2.00;;;;;;;19.38;66.34;98068.38;5012225;28;20136;-71
2022/08/04 02:08:00;;;;;;;2.28;2.08;;;;;;;19.41;65.78;98067.94;5022048;28;20049;-70
2022/08/04 02:10:42;;;;;;;2.30;2.10;;;;;;;19.40;64.23;98060.94;5016171;28;20042;-71
2022/08/04 02:13:32;;;;;;;2.38;2.03;;;;;;;19.41;65.70;98063.41;4995587;28;20045;-71
2022/08/04 02:16:03;;;;;;;2.38;1.95;;;;;;;19.42;65.43;98062.34;5011411;28;20493;-70
2022/08/04 02:18:40;;;;;;;2.33;2.13;;;;;;;19.41;65.36;98062.59;5012607;28;20049;-70
2022/08/04 02:21:07;;;;;;;2.03;1.83;;;;;;;19.42;66.03;98053.47;5005708;28;20057;-71
2022/08/04 02:23:36;;;;;;;3.15;2.08;;;;;;;19.39;65.20;98056.63;5041031;28;20041;-71
2022/08/04 02:26:04;;;;;;;2.15;2.00;;;;;;;19.38;64.94;98055.81;5019054;28;20050;-71
2022/08/04 02:28:35;;;;;;;2.30;2.10;;;;;;;19.41;64.54;98052.66;5022889;28;20052;-71
2022/08/04 02:31:18;;;;;;;3.58;2.20;;;;;;;19.49;64.79;98054.25;4997267;28;20048;-71
2022/08/04 02:33:51;;;;;;;5.43;2.20;;;;;;;19.61;63.22;98054.34;5013353;28;20042;-70
2022/08/04 02:36:28;;;;;;;2.03;1.85;;;;;;;19.70;63.87;98055.72;5040262;28;20061;-71
2022/08/04 02:38:58;;;;;;;7.57;1.85;;;;;;;19.66;62.51;98049.13;5024171;28;20056;-71
2022/08/04 02:41:27;;;;;;;3.90;2.03;;;;;;;19.54;64.55;98049.03;5022829;28;20492;-71
2022/08/04 02:44:01;;;;;;;3.33;2.00;;;;;;;19.54;64.81;98049.03;5020355;28;20056;-70
2022/08/04 02:46:29;;;;;;;6.45;2.22;;;;;;;19.44;65.11;98046.03;5018026;28;20041;-71
2022/08/04 02:48:56;;;;;;;2.75;2.30;;;;;;;19.26;65.25;98050.31;5016604;28;20046;-70
2022/08/04 02:51:27;;;;;;;3.22;2.20;;;;;;;19.39;65.51;98044.00;5025563;28;20057;-70
2022/08/04 02:53:56;;;;;;;2.20;2.00;;;;;;;19.26;64.87;98041.44;5003427;28;20052;-70
2022/08/04 02:56:25;;;;;;;2.85;2.45;;;;;;;19.21;65.64;98047.47;5023160;28;20662;-71
2022/08/04 02:58:57;;;;;;;2.50;2.30;;;;;;;19.17;66.43;98043.59;5022938;28;20045;-71
2022/08/04 03:01:23;;;;;;;3.33;2.70;;;;;;;19.30;65.51;98046.16;5010254;28;20046;-71
2022/08/04 03:03:59;;;;;;;2.55;2.20;;;;;;;19.22;65.55;98049.13;5012561;28;20049;-70
2022/08/04 03:06:41;;;;;;;3.08;2.25;;;;;;;19.07;64.90;98044.09;4997499;28;20067;-71
2022/08/04 03:09:23;;;;;;;2.37;2.10;;;;;;;18.99;65.59;98043.53;5018537;28;20050;-70
2022/08/04 03:11:49;;;;;;;2.90;2.40;;;;;;;18.94;65.55;98043.38;5018979;28;20313;-71
2022/08/04 03:14:50;;;;;;;2.95;2.15;;;;;;;18.92;64.86;98038.22;5024380;28;20053;-71
2022/08/04 03:17:51;;;;;;;2.80;2.30;;;;;;;18.84;66.09;98041.97;5011777;28;20038;-71
2022/08/04 03:20:49;;;;;;;3.20;2.47;;;;;;;18.72;67.20;98037.50;5014873;28;20405;-71
2022/08/04 03:23:39;;;;;;;3.33;2.50;;;;;;;18.69;65.65;98045.97;5019499;28;20045;-71
2022/08/04 03:26:24;;;;;;;2.20;2.00;;;;;;;18.77;66.83;98041.22;5008947;28;20057;-71
2022/08/04 03:29:22;;;;;;;2.45;2.25;;;;;;;18.94;67.25;98051.41;5023486;28;20493;-71
2022/08/04 03:32:11;;;;;;;2.80;2.60;;;;;;;19.00;66.49;98045.16;5017454;28;20041;-71
2022/08/04 03:34:40;;;;;;;4.88;2.42;;;;;;;19.12;65.52;98051.47;5009321;28;20046;-71
2022/08/04 03:37:14;;;;;;;4.30;2.30;;;;;;;19.02;64.48;98054.63;5020816;28;20667;-71
2022/08/04 03:40:11;;;;;;;2.50;2.28;;;;;;;19.06;66.34;98061.22;5009748;28;20049;-71
2022/08/04 03:42:50;;;;;;;3.53;2.47;;;;;;;19.04;65.80;98068.66;5018692;28;22475;-71
2022/08/04 03:45:40;;;;;;;2.20;2.00;;;;;;;18.92;65.43;98059.66;4991149;28;20120;-71
2022/08/04 03:48:43;;;;;;;2.70;2.50;;;;;;;18.82;65.57;98065.47;5017715;28;20061;-71
2022/08/04 03:54:31;;;;;;;3.22;2.47;;;;;;;18.68;67.43;98065.78;5013803;28;20046;-71
2022/08/04 03:57:19;;;;;;;4.05;2.15;;;;;;;18.60;67.10;98064.97;5015178;28;20051;-71
2022/08/04 03:59:56;;;;;;;3.47;2.35;;;;;;;18.60;67.39;98064.16;5011239;28;20038;-71
2022/08/04 04:02:59;;;;;;;2.13;1.92;;;;;;;18.56;67.34;98073.66;5020861;28;20045;-71
2022/08/04 04:05:28;;;;;;;;;;;;;;;18.57;67.18;98064.59;5014813;28;20045;-71
2022/08/04 04:08:43;;;;;;;2.72;2.53;;;;;;;18.57;67.25;98068.09;5019809;28;20573;-71
2022/08/04 04:11:33;;;;;;;1.95;1.67;;;;;;;18.60;66.72;98061.47;4988971;28;20057;-70
2022/08/04 04:14:47;;;;;;;2.40;2.20;;;;;;;18.58;66.95;98067.03;5011409;28;20096;-71
2022/08/04 04:17:19;;;;;;;2.40;2.10;;;;;;;18.62;67.79;98065.59;5022461;28;20057;-71
2022/08/04 04:19:59;;;;;;;1.83;1.63;;;;;;;18.68;67.00;98069.25;5030729;28;20401;-71
2022/08/04 04:22:50;;;;;;;3.42;2.03;;;;;;;18.71;67.89;98062.66;5010317;28;20397;-71
2022/08/04 04:25:25;;;;;;;2.85;1.90;;;;;;;18.77;66.88;98073.38;5008816;28;20504;-71
2022/08/04 04:28:20;;;;;;;3.10;2.28;;;;;;;18.84;67.32;98060.72;5016499;28;20045;-71
2022/08/04 04:31:42;;;;;;;2.97;2.03;;;;;;;18.95;66.84;98056.53;5011018;28;20099;-71
2022/08/04 04:34:24;;;;;;;3.38;1.75;;;;;;;19.06;66.44;98055.84;4989864;28;20504;-71
2022/08/04 04:37:12;;;;;;;4.53;2.40;;;;;;;19.16;65.60;98065.25;5022652;28;20041;-71
2022/08/04 04:39:50;;;;;;;2.33;2.13;;;;;;;19.25;65.01;98062.09;5018081;28;20095;-71
2022/08/04 04:42:38;;;;;;;4.68;2.22;;;;;;;19.44;65.20;98064.81;5023296;28;20041;-71
2022/08/04 04:45:22;;;;;;;3.67;2.10;;;;;;;19.53;62.39;98058.94;5032080;28;20041;-71
2022/08/04 04:47:54;;;;;;;2.75;2.13;;;;;;;19.71;62.11;98060.03;5020102;28;20116;-71
2022/08/04 04:50:53;;;;;;;4.47;1.75;;;;;;;19.85;62.04;98064.25;5025640;28;20119;-71
2022/08/04 04:53:28;;;;;;;2.60;1.77;;;;;;;20.04;60.88;98062.38;5021779;28;20069;-71
2022/08/04 04:56:29;;;;;;;4.85;2.10;;;;;;;20.09;61.04;98067.91;5038501;28;20409;-71
2022/08/04 04:58:57;;;;;;;2.50;2.20;;;;;;;20.08;61.43;98068.94;4970250;28;20452;-71
2022/08/04 05:02:08;;;;;;;2.72;2.10;;;;;;;20.03;62.54;98070.66;4945374;28;79208;-71
2022/08/04 05:04:53;;;;;;;5.10;2.75;;;;;;;19.98;62.53;98073.19;5018385;28;20037;-71
2022/08/04 05:07:36;;;;;;;4.05;1.98;;;;;;;20.02;62.27;98066.34;5022461;28;20655;-71
2022/08/04 05:10:37;;;;;;;4.03;2.28;;;;;;;20.03;62.56;98074.16;5017000;28;20034;-71
2022/08/04 05:13:53;;;;;;;4.18;2.08;;;;;;;20.22;61.77;98075.00;5014947;28;20053;-71
2022/08/04 05:16:55;;;;;;;2.38;2.17;;;;;;;20.40;61.05;98074.13;4966364;28;20098;-70
2022/08/04 05:19:33;;;;;;;2.83;2.17;;;;;;;20.50;60.11;98077.09;5014900;28;20050;-71
2022/08/04 05:22:05;;;;;;;10.85;2.35;;;;;;;20.53;60.75;98071.25;5017600;28;20045;-71
2022/08/04 05:24:38;;;;;;;3.95;2.45;;;;;;;20.47;60.87;98077.56;5021873;28;20049;-72
2022/08/04 05:27:14;;;;;;;2.60;1.98;;;;;;;20.53;60.71;98070.44;5007715;28;20791;-71
2022/08/04 05:29:49;;;;;;;5.57;2.08;;;;;;;20.65;60.41;98079.44;5033855;28;20041;-71
2022/08/04 05:32:16;;;;;;;3.42;2.45;;;;;;;20.72;60.30;98071.25;5017682;28;20530;-72
2022/08/04 05:34:48;;;;;;;4.38;2.35;;;;;;;20.76;60.49;98070.56;4989162;28;20129;-71
2022/08/04 05:37:16;;;;;;;4.50;2.53;;;;;;;20.74;59.85;98079.91;5009918;28;20048;-72
2022/08/04 05:39:57;;;;;;;6.28;2.53;;;;;;;20.85;59.32;98073.75;5020787;28;20544;-72
2022/08/04 05:42:25;;;;;;;7.30;2.28;;;;;;;20.86;59.14;98069.22;5019599;28;20046;-71
2022/08/04 05:44:52;;;;;;;4.25;2.00;;;;;;;21.00;58.84;98073.34;5020481;28;20058;-71
2022/08/04 05:47:20;;;;;;;2.13;1.90;;;;;;;21.09;58.08;98071.13;4998151;28;20046;-71
2022/08/04 05:49:48;;;;;;;2.17;1.98;;;;;;;21.09;58.80;98074.66;5016943;28;20041;-71
2022/08/04 05:52:28;;;;;;;3.13;2.17;;;;;;;21.30;58.08;98075.97;5015353;28;20116;-71
2022/08/04 05:54:55;;;;;;;2.10;1.90;;;;;;;21.37;58.56;98076.66;5015495;28;20064;-71
2022/08/04 05:57:23;;;;;;;4.47;2.05;;;;;;;21.39;58.27;98077.28;5021000;28;20049;-71
2022/08/04 05:59:51;;;;;;;2.75;1.67;;;;;;;21.68;57.24;98074.72;5039996;28;20447;-71
2022/08/04 06:02:18;;;;;;;2.13;1.92;;;;;;;21.72;58.47;98081.28;5016033;28;20054;-71
2022/08/04 06:04:48;;;;;;;2.67;1.85;;;;;;;21.91;56.44;98082.78;5013703;28;20121;-71
2022/08/04 06:07:15;;;;;;;3.90;2.40;;;;;;;21.99;56.44;98078.13;5018293;28;20037;-70
2022/08/04 06:09:41;;;;;;;3.85;2.40;;;;;;;21.97;56.56;98080.22;5017605;28;20049;-71
2022/08/04 06:12:21;;;;;;;3.88;1.80;;;;;;;22.07;56.08;98081.25;4994250;28;20133;-71
2022/08/04 06:14:51;;;;;;;3.42;2.05;;;;;;;22.19;56.64;98081.25;5023641;28;20041;-72
2022/08/04 06:17:23;;;;;;;4.05;2.22;;;;;;;22.32;55.88;98083.66;5006934;28;20724;-71
2022/08/04 06:20:12;;;;;;;2.92;1.90;;;;;;;22.33;56.84;98081.81;5013318;28;20041;-72
2022/08/04 06:22:51;;;;;;;7.97;1.95;;;;;;;22.42;56.51;98082.25;5005480;28;20050;-71
2022/08/04 06:25:21;;;;;;;2.63;2.10;;;;;;;22.57;55.26;98079.84;5031874;28;20479;-71
2022/08/04 06:27:48;;;;;;;3.50;2.00;;;;;;;22.70;55.53;98086.84;5011260;28;20052;-71
2022/08/04 06:30:18;;;;;;;5.95;2.05;;;;;;;22.82;54.88;98086.78;5036089;28;20042;-71
2022/08/04 06:32:55;;;;;;;3.13;1.95;;;;;;;23.04;54.65;98085.06;5014863;28;20049;-71
2022/08/04 06:35:31;;;;;;;4.60;2.08;;;;;;;23.13;54.13;98093.56;5009664;28;20112;-71
2022/08/04 06:37:58;;;;;;;2.90;2.03;;;;;;;23.27;53.33;98085.97;5021818;28;20052;-71
2022/08/04 06:40:27;;;;;;;3.13;2.00;;;;;;;23.40;54.07;98078.34;5014562;28;20037;-71
2022/08/04 06:43:03;;;;;;;4.40;2.33;;;;;;;23.56;53.04;98079.41;5008059;28;20045;-71
2022/08/04 06:45:33;;;;;;;4.53;1.90;;;;;;;23.54;53.17;98075.31;5008768;28;20051;-71
2022/08/04 06:47:59;;;;;;;3.35;2.22;;;;;;;23.80;51.63;98080.09;5018270;28;20041;-71
2022/08/04 06:50:26;;;;;;;9.20;1.95;;;;;;;23.85;52.51;98079.31;5039226;28;20040;-71
2022/08/04 06:53:13;;;;;;;4.35;2.08;;;;;;;23.85;51.54;98082.03;5017352;28;20403;-71
2022/08/04 06:55:44;;;;;;;3.70;1.63;;;;;;;23.99;51.20;98075.22;5032027;28;20124;-71
2022/08/04 06:58:12;;;;;;;5.25;1.73;;;;;;;24.12;51.59;98084.84;5031889;28;20046;-71
2022/08/04 07:00:41;;;;;;;2.15;1.95;;;;;;;24.23;51.48;98080.38;5004759;28;20523;-71
2022/08/04 07:03:07;;;;;;;4.88;1.77;;;;;;;24.30;50.07;98078.28;5012640;28;20053;-71
2022/08/04 07:05:34;;;;;;;3.08;1.80;;;;;;;24.40;49.31;98077.59;5035513;28;20049;-71
2022/08/04 07:08:02;;;;;;;3.17;1.92;;;;;;;24.60;49.92;98086.00;5011874;28;20054;-71
2022/08/04 07:10:30;;;;;;;3.60;1.60;;;;;;;24.60;50.55;98077.88;5030886;28;20060;-71
2022/08/04 07:12:58;;;;;;;5.05;1.90;;;;;;;24.68;49.97;98074.72;5014955;28;20042;-71
2022/08/04 07:15:25;;;;;;;3.95;1.70;;;;;;;24.77;49.77;98079.66;5002577;28;20038;-71
2022/08/04 07:17:52;;;;;;;3.70;1.60;;;;;;;24.95;48.29;98085.53;5014418;28;20049;-71
2022/08/04 07:20:20;;;;;;;2.00;1.75;;;;;;;25.00;49.57;98079.34;5016891;28;20075;-71
2022/08/04 07:23:05;;;;;;;3.28;1.60;;;;;;;25.11;49.24;98077.56;5034135;28;20061;-71
2022/08/04 07:25:35;;;;;;;3.58;1.70;;;;;;;25.19;48.81;98077.94;5014795;28;20070;-71
2022/08/04 07:28:25;;;;;;;3.55;1.73;;;;;;;25.30;49.16;98070.72;5015522;28;20061;-71
2022/08/04 07:30:53;;;;;;;2.47;2.03;;;;;;;25.29;49.14;98073.69;5015085;28;20045;-71
2022/08/04 07:33:20;;;;;;;8.02;2.00;;;;;;;25.45;48.76;98075.44;5016609;28;20046;-71
2022/08/04 07:35:56;;;;;;;3.55;1.60;;;;;;;25.43;49.08;98072.16;5016009;28;20546;-71
2022/08/04 07:38:40;;;;;;;3.67;1.75;;;;;;;25.46;48.82;98076.25;5028738;28;20508;-71
2022/08/04 07:41:23;;;;;;;2.70;1.90;;;;;;;25.72;47.78;98077.25;5020435;28;20041;-69
2022/08/04 07:44:06;;;;;;;3.03;2.20;;;;;;;25.94;47.25;98077.97;4992882;28;20049;-71
2022/08/04 07:46:34;;;;;;;4.05;1.73;;;;;;;26.02;47.17;98073.94;4998017;28;20041;-71
2022/08/04 07:49:00;;;;;;;2.13;1.92;;;;;;;26.26;46.66;98069.72;5026793;28;20056;-71
2022/08/04 07:51:29;;;;;;;6.05;1.90;;;;;;;26.33;46.39;98063.22;5020480;28;20515;-71
2022/08/04 07:53:56;;;;;;;2.90;1.90;;;;;;;26.33;45.80;98072.19;5013033;28;20052;-72
2022/08/04 07:56:25;;;;;;;2.83;1.80;;;;;;;26.45;46.32;98071.94;5020924;28;20057;-71
2022/08/04 07:58:51;;;;;;;3.50;1.52;;;;;;;26.60;45.85;98069.31;5019956;28;20042;-71
2022/08/04 08:01:18;;;;;;;1.70;1.50;;;;;;;26.77;45.64;98063.66;5005322;28;20041;-71
2022/08/04 08:03:46;;;;;;;1.70;1.40;;;;;;;26.94;44.67;98066.13;5030707;28;20488;-71
2022/08/04 08:06:12;;;;;;;3.08;1.55;;;;;;;27.20;44.40;98063.44;5023354;28;20084;-71
2022/08/04 08:08:59;;;;;;;3.28;1.65;;;;;;;27.28;44.18;98060.22;5001914;28;20053;-71
2022/08/04 08:11:37;;;;;;;4.28;1.75;;;;;;;27.51;43.90;98054.19;5020584;28;20041;-71
2022/08/04 08:14:24;;;;;;;4.68;2.25;;;;;;;27.59;44.02;98055.53;5018921;28;20046;-71
2022/08/04 08:16:51;;;;;;;4.28;1.65;;;;;;;27.73;43.26;98053.09;5019361;28;20519;-71
2022/08/04 08:19:17;;;;;;;4.25;1.67;;;;;;;27.78;43.00;98055.81;5019903;28;20053;-72
2022/08/04 08:21:48;;;;;;;4.65;2.03;;;;;;;27.85;42.22;98059.06;5014602;28;20042;-71
2022/08/04 08:24:27;;;;;;;6.80;2.07;;;;;;;28.15;41.39;98052.72;5005383;28;20053;-71
2022/08/04 08:26:55;;;;;;;3.15;2.00;;;;;;;28.38;41.92;98043.09;5017743;28;20304;-72
2022/08/04 08:29:23;;;;;;;2.10;1.55;;;;;;;28.43;42.57;98051.25;5006503;28;20088;-71
2022/08/04 08:31:50;;;;;;;3.20;1.77;;;;;;;28.65;41.45;98048.16;5022756;28;20522;-71
2022/08/04 08:34:24;;;;;;;6.82;1.80;;;;;;;28.83;40.22;98043.13;5017441;28;20467;-71
2022/08/04 08:37:03;;;;;;;5.75;1.50;;;;;;;28.94;39.96;98049.31;5014641;28;20085;-71
2022/08/04 08:39:43;;;;;;;2.70;1.75;;;;;;;29.05;38.73;98042.75;5031296;28;20053;-71
2022/08/04 08:42:49;;;;;;;4.53;1.88;;;;;;;29.15;40.53;98050.00;5031314;28;20050;-71
2022/08/04 08:45:27;;;;;;;3.80;2.13;;;;;;;28.92;41.12;98048.81;5020662;28;22233;-71
2022/08/04 08:48:45;;;;;;;1.83;1.52;;;;;;;28.97;38.54;98049.56;5018657;28;20049;-71
2022/08/04 08:51:39;;;;;;;2.25;1.98;;;;;;;29.41;37.90;98046.00;5003288;28;20129;-71
2022/08/04 08:54:31;;;;;;;2.50;1.45;;;;;;;29.24;39.42;98045.59;5016769;28;20508;-71
2022/08/04 08:57:23;;;;;;;2.63;1.90;;;;;;;29.32;40.10;98047.69;5013475;28;20045;-71
2022/08/04 09:00:02;;;;;;;4.85;1.60;;;;;;;29.40;38.18;98041.63;5022264;28;20041;-71
2022/08/04 09:02:40;;;;;;;3.33;1.55;;;;;;;29.64;37.16;98040.84;5021811;28;20042;-71
2022/08/04 09:05:23;;;;;;;2.67;1.70;;;;;;;29.94;38.02;98048.75;5018559;28;20142;-71
2022/08/04 09:08:08;;;;;;;6.95;1.80;;;;;;;30.07;37.42;98046.41;5018237;28;20409;-70
2022/08/04 09:10:45;;;;;;;4.22;1.60;;;;;;;29.92;39.71;98041.97;5015030;28;20041;-70
2022/08/04 09:13:47;;;;;;;1.48;1.38;;;;;;;29.98;36.60;98041.59;5015536;28;20064;-70
2022/08/04 09:16:16;;;;;;;1.50;1.40;;;;;;;29.69;38.34;98043.56;5000883;28;20058;-70
2022/08/04 09:18:53;;;;;;;4.75;1.65;;;;;;;29.96;36.96;98037.53;5010735;28;20057;-70
2022/08/04 09:21:37;;;;;;;1.40;1.30;;;;;;;30.29;37.37;98041.25;5014549;28;20038;-71
2022/08/04 09:24:17;;;;;;;8.63;2.15;;;;;;;30.57;34.33;98036.81;5011961;28;20046;-71
2022/08/04 09:27:27;;;;;;;2.13;1.90;;;;;;;30.88;35.72;98047.28;4996512;28;20064;-70
2022/08/04 09:30:00;;;;;;;2.35;1.40;;;;;;;30.72;36.70;98045.88;5013262;28;20045;-71
2022/08/04 09:32:37;;;;;;;3.70;2.15;;;;;;;30.94;36.02;98039.81;4999830;28;20136;-71
2022/08/04 09:35:19;;;;;;;4.18;1.73;;;;;;;30.82;33.76;98043.81;5020102;28;20038;-71
2022/08/04 09:38:25;;;;;;;2.33;1.40;;;;;;;31.19;35.48;98046.81;5008184;28;20058;-71
2022/08/04 09:41:06;;;;;;;3.70;1.70;;;;;;;31.41;34.45;98043.47;4999270;28;20065;-71
2022/08/04 09:44:15;;;;;;;3.35;2.00;;;;;;;31.29;34.82;98041.19;5019279;28;20052;-71
2022/08/04 09:47:12;;;;;;;2.70;1.90;;;;;;;31.13;34.88;98042.56;5012272;28;20046;-71
2022/08/04 09:49:44;;;;;;;2.08;1.70;;;;;;;31.48;33.54;98031.03;5032375;28;20060;-71
2022/08/04 09:52:26;;;;;;;1.88;1.50;;;;;;;31.57;31.94;98039.38;5038804;28;20667;-71
2022/08/04 09:55:11;;;;;;;1.88;1.73;;;;;;;31.03;34.77;98032.59;5020365;28;20045;-71
2022/08/04 09:57:59;;;;;;;5.07;1.77;;;;;;;31.08;34.40;98029.78;5018536;28;20049;-71
2022/08/04 10:00:30;;;;;;;2.45;1.65;;;;;;;30.95;34.52;98025.88;5019705;28;20108;-71
2022/08/04 10:03:09;;;;;;;1.40;1.30;;;;;;;31.00;34.92;98025.78;5033530;28;20046;-72
2022/08/04 10:06:09;;;;;;;2.05;1.85;;;;;;;30.98;34.96;98024.47;5021234;28;20056;-71
2022/08/04 10:09:10;;;;;;;4.22;1.88;;;;;;;30.66;34.34;98019.75;5018005;28;20042;-71
2022/08/04 10:12:02;;;;;;;1.85;1.52;;;;;;;30.65;36.07;98016.22;5023398;28;20431;-70
2022/08/04 10:15:06;;;;;;;1.83;1.73;;;;;;;30.90;34.90;98011.50;5019702;28;20451;-71
2022/08/04 10:17:42;;;;;;;3.60;1.70;;;;;;;30.68;37.45;98014.81;5023767;28;20053;-71
2022/08/04 10:20:36;;;;;;;2.17;1.70;;;;;;;30.88;34.96;98009.03;4998140;28;20049;-71
2022/08/04 10:23:35;;;;;;;1.55;1.45;;;;;;;30.52;34.53;98006.84;5013836;28;20085;-71
2022/08/04 10:26:30;;;;;;;2.85;2.10;;;;;;;30.56;32.48;98002.41;5020470;28;20053;-71
2022/08/04 10:29:02;;;;;;;4.35;2.08;;;;;;;30.54;35.02;97999.16;5006271;28;20049;-71
2022/08/04 10:31:32;;;;;;;3.38;1.90;;;;;;;30.74;35.01;97998.03;5027875;28;20041;-71
2022/08/04 10:34:02;;;;;;;2.08;1.98;;;;;;;30.88;34.77;97994.59;5016318;28;20041;-70
2022/08/04 10:36:40;;;;;;;2.10;1.63;;;;;;;30.86;34.93;97992.16;5022196;28;20064;-70
2022/08/04 10:39:11;;;;;;;2.60;1.83;;;;;;;31.09;33.51;97992.34;5034101;28;20057;-71
2022/08/04 10:42:16;;;;;;;2.70;1.73;;;;;;;31.04;34.63;97991.31;5023410;28;20052;-71
2022/08/04 10:44:54;;;;;;;2.08;1.88;;;;;;;31.37;31.40;97980.38;5006663;28;20395;-71
2022/08/04 10:47:25;;;;;;;2.85;1.83;;;;;;;31.39;30.72;97989.09;5029778;28;20524;-70
2022/08/04 10:49:59;;;;;;;3.55;1.67;;;;;;;31.45;33.97;97984.34;5033842;28;20496;-70
2022/08/04 10:52:33;;;;;;;5.07;2.28;;;;;;;31.38;33.40;97989.38;5034318;28;20053;-70
2022/08/04 10:55:06;;;;;;;2.90;1.63;;;;;;;31.17;32.10;97984.25;5032497;28;20045;-70
2022/08/04 10:57:46;;;;;;;2.03;1.80;;;;;;;31.01;32.87;97983.69;5037944;28;20053;-70
2022/08/04 11:00:18;;;;;;;3.45;1.70;;;;;;;31.46;32.04;97977.75;5034830;28;20053;-70
2022/08/04 11:03:04;;;;;;;2.00;1.58;;;;;;;31.63;30.54;97974.44;5021997;28;20416;-69
2022/08/04 11:05:40;;;;;;;5.13;1.38;;;;;;;31.35;31.87;97979.84;5016355;28;20570;-70
2022/08/04 11:08:23;;;;;;;4.53;1.63;;;;;;;31.17;32.95;97977.97;5032332;28;20037;-70
2022/08/04 11:11:21;;;;;;;1.67;1.50;;;;;;;31.16;32.80;97976.38;5027775;28;20034;-70
2022/08/04 11:13:53;;;;;;;3.25;1.58;;;;;;;31.21;33.06;97977.09;5019496;28;20064;-70
2022/08/04 11:16:23;;;;;;;6.13;1.88;;;;;;;31.14;33.30;97982.13;5018857;28;20048;-70
2022/08/04 11:19:07;;;;;;;1.50;1.40;;;;;;;31.17;32.53;97978.78;5007464;28;20228;-71
2022/08/04 11:21:39;;;;;;;2.03;1.58;;;;;;;31.00;32.24;97979.34;4998153;28;20047;-70
2022/08/04 11:24:24;;;;;;;1.55;1.33;;;;;;;30.96;33.24;97972.84;5007400;28;20046;-71
2022/08/04 11:27:00;;;;;;;2.80;1.77;;;;;;;31.45;30.70;97962.47;5023318;28;20044;-70
2022/08/04 11:30:05;;;;;;;1.73;1.58;;;;;;;31.63;30.52;97964.31;5005763;28;20072;-70
2022/08/04 11:32:46;;;;;;;2.00;1.50;;;;;;;31.44;30.47;97969.06;5007018;28;20145;-68
2022/08/04 11:35:26;;;;;;;2.05;1.85;;;;;;;31.37;31.37;97974.91;4990526;28;20046;-69
2022/08/04 11:38:51;;;;;;;2.13;1.70;;;;;;;31.48;31.09;97967.34;5015336;28;20049;-69
2022/08/04 11:41:22;;;;;;;1.95;1.58;;;;;;;32.03;30.67;97967.34;4991649;28;20051;-70
2022/08/04 11:43:57;;;;;;;2.27;1.70;;;;;;;31.69;32.18;97967.75;5014042;28;20045;-70
2022/08/04 11:46:38;;;;;;;2.85;1.67;;;;;;;31.87;31.18;97963.31;5027082;28;20328;-70
2022/08/04 11:49:33;;;;;;;1.80;1.70;;;;;;;32.43;29.47;97967.56;5034876;28;20436;-70
2022/08/04 11:52:21;;;;;;;4.35;2.13;;;;;;;32.17;30.96;97970.06;5021460;28;20056;-70
2022/08/04 11:54:48;;;;;;;3.35;1.60;;;;;;;32.01;29.15;97966.84;5015490;28;20048;-70
2022/08/04 11:57:21;;;;;;;1.75;1.65;;;;;;;32.05;28.73;97964.34;5005577;28;20056;-70
2022/08/04 12:00:04;;;;;;;2.47;1.65;;;;;;;32.09;30.06;97963.38;5018025;28;20057;-70
2022/08/04 12:02:55;;;;;;;1.75;1.60;;;;;;;31.69;30.34;97963.09;5018499;28;20037;-71
2022/08/04 12:05:35;;;;;;;3.85;2.08;;;;;;;31.77;31.44;97958.03;5020793;28;20045;-70
2022/08/04 12:08:21;;;;;;;3.90;2.08;;;;;;;31.20;32.66;97960.97;5022365;28;20037;-70
2022/08/04 12:11:09;;;;;;;2.47;1.80;;;;;;;30.88;33.56;97959.06;5031871;28;20049;-70
2022/08/04 12:14:03;;;;;;;4.07;2.13;;;;;;;30.86;32.53;97969.47;5029633;28;20061;-70
2022/08/04 12:16:52;;;;;;;1.63;1.52;;;;;;;31.20;32.34;97950.88;5014242;28;20045;-70
2022/08/04 12:19:34;;;;;;;4.57;1.85;;;;;;;31.44;32.71;97953.47;5018346;28;20042;-70
2022/08/04 12:22:23;;;;;;;1.97;1.77;;;;;;;31.35;32.41;97952.50;5031655;28;20041;-70
2022/08/04 12:25:06;;;;;;;1.63;1.52;;;;;;;31.28;31.26;97949.34;5019224;28;20380;-69
2022/08/04 12:27:41;;;;;;;3.63;1.80;;;;;;;31.51;31.91;97952.25;5015201;28;20042;-70
2022/08/04 12:30:09;;;;;;;5.30;1.70;;;;;;;31.53;31.87;97945.38;4997673;28;20038;-70
2022/08/04 12:33:24;;;;;;;2.03;1.77;;;;;;;31.78;32.53;97945.97;5014260;28;20053;-69
2022/08/04 12:36:16;;;;;;;2.70;1.95;;;;;;;32.16;31.34;97948.50;5018177;28;20068;-69